createdAt,value
2017-11-20T00:02:02.460Z,54.30
2017-11-20T00:04:29.643Z,53.90
2017-11-20T00:06:58.340Z,54.20
2017-11-20T00:09:27.227Z,53.90
2017-11-20T00:11:55.146Z,54.20
2017-11-20T00:14:23.072Z,54.20
2017-11-20T00:16:50.236Z,54.90
2017-11-20T00:19:18.160Z,54.30
2017-11-20T00:21:46.239Z,54.20
2017-11-20T00:24:14.355Z,54.30
2017-11-20T00:26:41.507Z,53.80
2017-11-20T00:29:09.450Z,54.10
2017-11-20T00:31:37.407Z,54.80
2017-11-20T00:34:04.556Z,54.70
2017-11-20T00:36:32.628Z,54.10
2017-11-20T00:39:00.680Z,54.10
2017-11-20T00:41:27.885Z,54.50
2017-11-20T00:43:55.932Z,54.00
2017-11-20T00:46:23.852Z,53.90
2017-11-20T00:48:51.016Z,53.90
2017-11-20T00:51:19.159Z,53.50
2017-11-20T00:53:46.310Z,53.80
2017-11-20T00:56:13.567Z,53.60
2017-11-20T00:58:41.566Z,53.80
2017-11-20T01:01:08.715Z,53.90
2017-11-20T01:03:35.913Z,54.50
2017-11-20T01:06:03.838Z,53.70
2017-11-20T01:08:31.920Z,53.60
2017-11-20T01:10:59.084Z,53.50
2017-11-20T01:13:26.233Z,53.70
2017-11-20T01:15:53.427Z,53.60
2017-11-20T01:18:20.607Z,53.40
2017-11-20T01:20:47.760Z,53.80
2017-11-20T01:23:14.917Z,54.40
2017-11-20T01:25:42.841Z,53.80
2017-11-20T01:28:09.987Z,53.70
2017-11-20T01:30:38.711Z,53.80
2017-11-20T01:33:06.807Z,53.70
2017-11-20T01:35:33.962Z,53.60
2017-11-20T01:38:01.148Z,53.60
2017-11-20T01:40:29.107Z,54.80
2017-11-20T01:42:57.936Z,54.00
2017-11-20T01:45:25.088Z,54.00
2017-11-20T01:47:52.240Z,53.50
2017-11-20T01:50:19.391Z,53.70
2017-11-20T01:52:46.540Z,54.10
2017-11-20T01:55:13.688Z,53.70
2017-11-20T01:57:40.868Z,53.60
2017-11-20T02:00:08.088Z,53.50
2017-11-20T02:02:41.185Z,54.70
2017-11-20T02:05:08.844Z,54.10
2017-11-20T02:07:36.043Z,54.00
2017-11-20T02:10:04.077Z,53.50
2017-11-20T02:12:32.036Z,53.50
2017-11-20T02:14:59.308Z,53.90
2017-11-20T02:17:27.269Z,53.70
2017-11-20T02:19:54.423Z,54.00
2017-11-20T02:22:21.668Z,54.50
2017-11-20T02:24:48.818Z,54.20
2017-11-20T02:27:15.971Z,54.10
2017-11-20T02:29:44.017Z,54.00
2017-11-20T02:32:12.012Z,53.80
2017-11-20T02:34:39.171Z,53.80
2017-11-20T02:37:06.430Z,54.50
2017-11-20T02:39:33.584Z,54.60
2017-11-20T02:42:00.741Z,54.30
2017-11-20T02:44:27.941Z,54.30
2017-11-20T02:46:55.862Z,54.20
2017-11-20T02:49:23.018Z,54.70
2017-11-20T02:51:50.171Z,54.50
2017-11-20T02:54:17.328Z,54.90
2017-11-20T02:56:44.484Z,54.60
2017-11-20T02:59:11.644Z,54.20
2017-11-20T03:01:38.859Z,54.00
2017-11-20T03:04:06.013Z,53.50
2017-11-20T03:06:33.168Z,53.20
2017-11-20T03:09:00.324Z,52.60
2017-11-20T03:11:27.520Z,52.60
2017-11-20T03:13:55.455Z,52.90
2017-11-20T03:16:22.676Z,53.50
2017-11-20T03:18:49.920Z,52.90
2017-11-20T03:21:17.109Z,53.00
2017-11-20T03:23:44.328Z,53.20
2017-11-20T03:26:11.589Z,53.70
2017-11-20T03:28:38.843Z,53.30
2017-11-20T03:31:05.992Z,53.10
2017-11-20T03:33:33.187Z,53.00
2017-11-20T03:36:00.336Z,52.90
2017-11-20T03:38:27.569Z,53.30
2017-11-20T03:40:54.725Z,52.90
2017-11-20T03:43:21.876Z,52.80
2017-11-20T03:45:49.031Z,53.80
2017-11-20T03:48:16.316Z,53.20
2017-11-20T03:50:44.237Z,53.10
2017-11-20T03:53:11.389Z,53.10
2017-11-20T03:55:38.562Z,52.80
2017-11-20T03:58:05.722Z,53.40
2017-11-20T04:00:32.868Z,53.10
2017-11-20T04:03:00.898Z,53.30
2017-11-20T04:05:28.084Z,53.60
2017-11-20T04:07:55.233Z,53.40
2017-11-20T04:10:22.416Z,53.80
2017-11-20T04:12:50.341Z,53.50
2017-11-20T04:15:17.531Z,53.40
2017-11-20T04:17:44.684Z,53.50
2017-11-20T04:20:12.656Z,54.70
2017-11-20T04:22:40.585Z,53.70
2017-11-20T04:25:07.738Z,53.60
2017-11-20T04:27:34.893Z,53.40
2017-11-20T04:30:02.040Z,53.40
2017-11-20T04:32:29.192Z,53.50
2017-11-20T04:34:56.352Z,54.00
2017-11-20T04:37:23.503Z,53.50
2017-11-20T04:39:50.663Z,54.10
2017-11-20T04:42:17.849Z,53.60
2017-11-20T04:44:45.763Z,53.00
2017-11-20T04:47:13.735Z,53.00
2017-11-20T04:49:40.884Z,52.70
2017-11-20T04:52:08.080Z,52.50
2017-11-20T04:54:36.003Z,52.10
2017-11-20T04:57:03.153Z,52.10
2017-11-20T04:59:30.307Z,52.30
2017-11-20T05:01:57.465Z,52.50
2017-11-20T05:04:24.652Z,52.80
2017-11-20T05:06:52.603Z,52.50
2017-11-20T05:09:19.753Z,52.50
2017-11-20T05:11:46.935Z,52.50
2017-11-20T05:14:14.856Z,52.60
2017-11-20T05:16:42.775Z,52.70
2017-11-20T05:19:10.692Z,53.00
2017-11-20T05:21:37.845Z,53.00
2017-11-20T05:24:04.999Z,53.00
2017-11-20T05:26:32.205Z,52.80
2017-11-20T05:28:59.356Z,52.70
2017-11-20T05:31:26.516Z,52.70
2017-11-20T05:33:53.667Z,52.60
2017-11-20T05:36:20.824Z,53.30
2017-11-20T05:38:47.980Z,53.10
2017-11-20T05:41:15.164Z,52.80
2017-11-20T05:43:42.315Z,52.90
2017-11-20T05:46:09.472Z,52.80
2017-11-20T05:48:36.621Z,52.80
2017-11-20T05:51:03.808Z,52.90
2017-11-20T05:53:31.741Z,53.20
2017-11-20T05:55:58.892Z,53.10
2017-11-20T05:58:26.076Z,52.90
2017-11-20T06:00:54.003Z,53.00
2017-11-20T06:03:21.157Z,53.50
2017-11-20T06:05:48.307Z,53.10
2017-11-20T06:08:15.488Z,52.70
2017-11-20T06:10:42.640Z,52.80
2017-11-20T06:13:10.597Z,53.50
2017-11-20T06:15:37.747Z,53.40
2017-11-20T06:18:04.900Z,53.60
2017-11-20T06:20:32.113Z,53.40
2017-11-20T06:22:59.265Z,53.10
2017-11-20T06:25:26.427Z,52.70
2017-11-20T06:27:53.585Z,53.00
2017-11-20T06:30:20.740Z,53.00
2017-11-20T06:32:47.889Z,53.20
2017-11-20T06:35:15.047Z,53.50
2017-11-20T06:37:42.200Z,53.40
2017-11-20T06:40:09.354Z,53.50
2017-11-20T06:42:36.511Z,53.40
2017-11-20T06:45:03.669Z,53.30
2017-11-20T06:47:30.832Z,53.40
2017-11-20T06:49:58.756Z,53.60
2017-11-20T06:52:25.948Z,53.60
2017-11-20T06:54:53.876Z,53.40
2017-11-20T06:57:21.041Z,53.30
2017-11-20T06:59:48.231Z,53.40
2017-11-20T07:02:16.157Z,53.60
2017-11-20T07:04:43.313Z,53.60
2017-11-20T07:07:10.474Z,53.40
2017-11-20T07:09:37.628Z,53.40
2017-11-20T07:12:04.780Z,53.40
2017-11-20T07:14:31.934Z,53.50
2017-11-20T07:16:59.083Z,53.50
2017-11-20T07:19:26.303Z,53.80
2017-11-20T07:21:53.488Z,53.60
2017-11-20T07:24:20.676Z,53.70
2017-11-20T07:26:53.744Z,53.60
2017-11-20T07:29:27.671Z,53.60
2017-11-20T07:31:55.592Z,53.60
2017-11-20T07:34:28.533Z,53.60
2017-11-20T07:37:01.589Z,54.00
2017-11-20T07:39:33.524Z,53.90
2017-11-20T07:42:00.676Z,53.70
2017-11-20T07:44:28.600Z,53.60
2017-11-20T07:46:55.772Z,53.50
2017-11-20T07:49:22.972Z,53.70
2017-11-20T07:51:50.124Z,53.60
2017-11-20T07:54:17.279Z,54.40
2017-11-20T07:56:44.440Z,54.10
2017-11-20T07:59:12.376Z,54.20
2017-11-20T08:01:39.573Z,54.20
2017-11-20T08:04:07.484Z,53.90
2017-11-20T08:06:34.680Z,53.90
2017-11-20T08:09:02.608Z,54.20
2017-11-20T08:11:29.766Z,54.20
2017-11-20T08:13:56.933Z,54.40
2017-11-20T08:16:24.084Z,53.90
2017-11-20T08:18:51.236Z,53.90
2017-11-20T08:21:19.663Z,53.80
2017-11-20T08:23:46.818Z,53.90
2017-11-20T08:26:13.976Z,53.90
2017-11-20T08:28:41.165Z,53.70
2017-11-20T08:31:08.316Z,53.70
2017-11-20T08:33:36.308Z,53.70
2017-11-20T08:36:04.233Z,53.80
2017-11-20T08:38:31.395Z,53.80
2017-11-20T08:40:59.327Z,54.40
2017-11-20T08:43:26.488Z,54.40
2017-11-20T08:45:53.644Z,54.80
2017-11-20T08:48:20.796Z,53.80
2017-11-20T08:50:47.958Z,53.60
2017-11-20T08:53:15.140Z,53.80
2017-11-20T08:55:42.301Z,53.90
2017-11-20T08:58:09.487Z,53.90
2017-11-20T09:00:36.643Z,54.00
2017-11-20T09:03:03.841Z,54.50
2017-11-20T09:05:30.997Z,54.00
2017-11-20T09:07:58.157Z,53.90
2017-11-20T09:10:25.348Z,54.00
2017-11-20T09:12:52.504Z,54.10
2017-11-20T09:15:19.696Z,53.90
2017-11-20T09:17:46.850Z,54.00
2017-11-20T09:20:14.008Z,54.90
2017-11-20T09:22:41.156Z,54.50
2017-11-20T09:25:08.304Z,53.90
2017-11-20T09:27:36.764Z,54.10
2017-11-20T09:30:03.925Z,54.20
2017-11-20T09:32:31.112Z,54.10
2017-11-20T09:34:59.041Z,54.20
2017-11-20T09:37:26.595Z,54.10
2017-11-20T09:39:54.664Z,54.40
2017-11-20T09:42:21.822Z,54.40
2017-11-20T09:44:49.012Z,54.40
2017-11-20T09:47:16.932Z,55.00
2017-11-20T09:49:44.093Z,55.00
2017-11-20T09:52:11.248Z,54.50
2017-11-20T09:54:38.437Z,54.50
2017-11-20T09:57:06.370Z,54.40
2017-11-20T09:59:33.525Z,54.50
2017-11-20T10:02:00.668Z,54.40
2017-11-20T10:04:27.827Z,54.40
2017-11-20T10:06:55.021Z,54.40
2017-11-20T10:09:22.945Z,54.60
2017-11-20T10:11:50.096Z,54.60
2017-11-20T10:14:17.248Z,55.10
2017-11-20T10:16:45.206Z,54.50
2017-11-20T10:19:12.356Z,54.50
2017-11-20T10:21:39.523Z,54.70
2017-11-20T10:24:06.672Z,54.80
2017-11-20T10:26:33.827Z,54.60
2017-11-20T10:29:00.984Z,54.60
2017-11-20T10:31:28.195Z,54.20
2017-11-20T10:33:55.350Z,54.30
2017-11-20T10:36:22.520Z,54.50
2017-11-20T10:38:49.721Z,54.50
2017-11-20T10:41:17.650Z,54.60
2017-11-20T10:43:44.808Z,54.60
2017-11-20T10:46:11.965Z,54.50
2017-11-20T10:48:39.121Z,54.40
2017-11-20T10:51:06.273Z,54.50
2017-11-20T10:53:33.427Z,54.70
2017-11-20T10:56:00.616Z,54.40
2017-11-20T10:58:27.946Z,54.40
2017-11-20T11:00:55.152Z,54.00
2017-11-20T11:03:22.313Z,54.30
2017-11-20T11:05:49.465Z,54.50
2017-11-20T11:08:16.661Z,54.40
2017-11-20T11:10:44.582Z,54.50
2017-11-20T11:13:11.737Z,54.50
2017-11-20T11:15:38.901Z,54.90
2017-11-20T11:18:06.060Z,54.60
2017-11-20T11:20:33.212Z,54.60
2017-11-20T11:23:00.372Z,54.60
2017-11-20T11:25:28.348Z,54.90
2017-11-20T11:27:56.276Z,54.70
2017-11-20T11:30:23.433Z,54.60
2017-11-20T11:32:50.601Z,55.30
2017-11-20T11:35:17.767Z,54.90
2017-11-20T11:37:45.913Z,54.80
2017-11-20T11:40:13.116Z,54.80
2017-11-20T11:42:40.274Z,54.80
2017-11-20T11:45:07.441Z,54.80
2017-11-20T11:47:34.630Z,55.20
2017-11-20T11:50:01.791Z,55.10
2017-11-20T11:52:30.863Z,55.00
2017-11-20T11:54:58.048Z,54.80
2017-11-20T11:57:25.984Z,54.80
2017-11-20T11:59:53.144Z,54.80
2017-11-20T12:02:20.302Z,55.00
2017-11-20T12:04:47.463Z,54.80
2017-11-20T12:07:15.399Z,55.10
2017-11-20T12:09:42.578Z,55.10
2017-11-20T12:12:11.046Z,54.70
2017-11-20T12:14:38.451Z,54.70
2017-11-20T12:17:05.663Z,54.70
2017-11-20T12:19:32.813Z,54.70
2017-11-20T12:22:00.045Z,55.00
2017-11-20T12:24:27.205Z,55.20
2017-11-20T12:26:54.364Z,55.00
2017-11-20T12:29:21.516Z,55.30
2017-11-20T12:31:48.692Z,54.80
2017-11-20T12:34:16.612Z,55.30
2017-11-20T12:36:43.768Z,55.30
2017-11-20T12:39:10.973Z,55.20
2017-11-20T12:41:38.892Z,54.80
2017-11-20T12:44:06.057Z,54.90
2017-11-20T12:46:33.207Z,54.80
2017-11-20T12:49:00.364Z,54.80
2017-11-20T12:51:27.570Z,54.70
2017-11-20T12:53:54.727Z,54.70
2017-11-20T12:56:21.882Z,54.60
2017-11-20T12:58:49.047Z,54.60
2017-11-20T13:01:16.205Z,54.60
2017-11-20T13:03:44.127Z,54.50
2017-11-20T13:06:11.286Z,54.50
2017-11-20T13:08:38.446Z,54.80
2017-11-20T13:11:05.607Z,54.90
2017-11-20T13:13:32.768Z,54.60
2017-11-20T13:15:59.946Z,54.60
2017-11-20T13:18:27.101Z,54.70
2017-11-20T13:20:54.260Z,54.80
2017-11-20T13:23:22.191Z,54.80
2017-11-20T13:25:49.344Z,54.80
2017-11-20T13:28:16.513Z,55.20
2017-11-20T13:30:43.716Z,54.90
2017-11-20T13:33:10.880Z,55.00
2017-11-20T13:35:38.028Z,55.00
2017-11-20T13:38:05.225Z,55.00
2017-11-20T13:40:32.410Z,55.10
2017-11-20T13:43:00.338Z,56.00
2017-11-20T13:45:27.528Z,56.00
2017-11-20T13:47:55.453Z,55.00
2017-11-20T13:50:22.654Z,55.00
2017-11-20T13:52:49.813Z,54.80
2017-11-20T13:55:16.965Z,55.00
2017-11-20T13:57:44.161Z,55.00
2017-11-20T14:00:11.361Z,55.00
2017-11-20T14:02:39.321Z,54.90
2017-11-20T14:05:07.249Z,54.70
2017-11-20T14:07:34.432Z,54.70
2017-11-20T14:10:02.361Z,54.80
2017-11-20T14:12:29.552Z,54.80
2017-11-20T14:14:57.482Z,54.80
2017-11-20T14:17:24.649Z,54.80
2017-11-20T14:19:51.805Z,54.60
2017-11-20T14:22:18.961Z,54.60
2017-11-20T14:24:46.160Z,54.70
2017-11-20T14:27:13.316Z,54.80
2017-11-20T14:29:40.478Z,54.60
2017-11-20T14:32:07.631Z,54.60
2017-11-20T14:34:34.793Z,54.60
2017-11-20T14:37:01.981Z,54.80
2017-11-20T14:39:29.134Z,54.70
2017-11-20T14:41:57.090Z,55.30
2017-11-20T14:44:24.301Z,55.20
2017-11-20T14:46:51.452Z,54.70
2017-11-20T14:49:18.610Z,55.30
2017-11-20T14:51:46.677Z,54.70
2017-11-20T14:54:13.842Z,54.80
2017-11-20T14:56:41.000Z,54.80
2017-11-20T14:59:08.417Z,54.60
2017-11-20T15:01:39.330Z,55.40
2017-11-20T15:04:07.261Z,54.80
2017-11-20T15:06:34.460Z,54.80
2017-11-20T15:09:02.389Z,54.70
2017-11-20T15:11:29.552Z,54.70
2017-11-20T15:13:56.712Z,54.90
2017-11-20T15:16:23.884Z,55.40
2017-11-20T15:18:51.844Z,55.00
2017-11-20T15:21:19.769Z,55.00
2017-11-20T15:23:46.951Z,55.00
2017-11-20T15:26:14.110Z,55.00
2017-11-20T15:28:41.302Z,54.90
2017-11-20T15:31:08.461Z,55.80
2017-11-20T15:33:35.654Z,55.60
2017-11-20T15:36:02.818Z,55.10
2017-11-20T15:38:30.014Z,54.90
2017-11-20T15:40:57.174Z,54.90
2017-11-20T15:43:24.375Z,55.90
2017-11-20T15:45:51.524Z,55.50
2017-11-20T15:48:18.676Z,55.20
2017-11-20T15:50:45.833Z,54.80
2017-11-20T15:53:13.783Z,54.40
2017-11-20T15:55:40.936Z,54.40
2017-11-20T15:58:08.122Z,54.40
2017-11-20T16:00:36.045Z,55.20
2017-11-20T16:03:03.235Z,55.20
2017-11-20T16:05:31.179Z,54.60
2017-11-20T16:07:58.372Z,54.60
2017-11-20T16:10:25.555Z,54.30
2017-11-20T16:12:52.723Z,54.60
2017-11-20T16:15:19.880Z,54.60
2017-11-20T16:17:47.036Z,54.70
2017-11-20T16:20:14.225Z,55.50
2017-11-20T16:22:41.374Z,54.70
2017-11-20T16:25:08.569Z,54.60
2017-11-20T16:27:35.720Z,54.50
2017-11-20T16:30:02.882Z,54.40
2017-11-20T16:32:30.051Z,54.80
2017-11-20T16:34:57.236Z,55.20
2017-11-20T16:37:24.431Z,55.20
2017-11-20T16:39:51.579Z,54.90
2017-11-20T16:42:18.781Z,54.80
2017-11-20T16:44:46.716Z,54.70
2017-11-20T16:47:13.878Z,55.30
2017-11-20T16:49:41.035Z,55.00
2017-11-20T16:52:08.190Z,55.70
2017-11-20T16:54:36.165Z,55.10
2017-11-20T16:57:10.041Z,54.90
2017-11-20T16:59:37.228Z,54.90
2017-11-20T17:02:10.924Z,54.60
2017-11-20T17:04:38.852Z,56.20
2017-11-20T17:07:06.009Z,56.20
2017-11-20T17:09:33.164Z,55.00
2017-11-20T17:12:00.344Z,56.20
2017-11-20T17:14:27.497Z,57.70
2017-11-20T17:16:55.469Z,55.10
2017-11-20T17:19:23.399Z,55.00
2017-11-20T17:21:50.557Z,55.00
2017-11-20T17:24:17.720Z,55.40
2017-11-20T17:26:44.877Z,54.30
2017-11-20T17:29:12.040Z,55.30
2017-11-20T17:31:39.972Z,54.90
2017-11-20T17:37:35.215Z,54.30
2017-11-20T17:40:02.384Z,54.00
2017-11-20T17:42:29.565Z,54.00
2017-11-20T17:44:56.731Z,53.50
2017-11-20T17:47:23.920Z,55.10
2017-11-20T17:49:51.064Z,54.40
2017-11-20T17:52:18.985Z,54.00
2017-11-20T17:54:46.172Z,54.00
2017-11-20T17:57:14.092Z,53.60
2017-11-20T17:59:41.240Z,53.50
2017-11-20T18:02:08.401Z,53.70
2017-11-20T18:04:35.585Z,54.10
2017-11-20T18:07:02.737Z,53.50
2017-11-20T18:09:30.046Z,53.50
2017-11-20T18:11:57.195Z,53.50
2017-11-20T18:14:24.349Z,53.40
2017-11-20T18:16:51.504Z,53.50
2017-11-20T18:19:18.654Z,53.50
2017-11-20T18:21:45.896Z,53.40
2017-11-20T18:24:13.090Z,53.60
2017-11-20T18:26:40.246Z,53.60
2017-11-20T18:29:07.401Z,53.60
2017-11-20T18:31:34.586Z,53.60
2017-11-20T18:34:02.509Z,54.40
2017-11-20T18:36:29.692Z,54.30
2017-11-20T18:38:57.625Z,53.80
2017-11-20T18:41:24.809Z,53.70
2017-11-20T18:43:52.730Z,53.60
2017-11-20T18:46:19.933Z,53.60
2017-11-20T18:48:47.960Z,54.80
2017-11-20T18:51:15.168Z,54.30
2017-11-20T18:53:43.136Z,54.40
2017-11-20T18:56:11.185Z,54.40
2017-11-20T18:58:38.500Z,54.40
2017-11-20T19:01:12.443Z,54.00
2017-11-20T19:03:42.475Z,53.80
2017-11-20T19:06:14.628Z,53.90
2017-11-20T19:08:56.793Z,53.60
2017-11-20T19:11:23.973Z,54.10
2017-11-20T19:13:51.129Z,54.00
2017-11-20T19:16:18.276Z,53.80
2017-11-20T19:18:45.432Z,53.70
2017-11-20T19:21:12.624Z,53.70
2017-11-20T19:23:40.526Z,53.80
2017-11-20T19:26:07.927Z,53.80
2017-11-20T19:28:35.145Z,53.80
2017-11-20T19:31:02.328Z,53.70
2017-11-20T19:33:29.476Z,53.70
2017-11-20T19:35:56.669Z,53.80
2017-11-20T19:38:23.828Z,53.80
2017-11-20T19:40:51.025Z,53.70
2017-11-20T19:43:18.944Z,53.90
2017-11-20T19:45:46.097Z,53.90
2017-11-20T19:48:13.270Z,54.70
2017-11-20T19:50:41.208Z,53.90
2017-11-20T19:53:08.361Z,53.90
2017-11-20T19:55:35.722Z,54.20
2017-11-20T19:58:02.990Z,54.40
2017-11-20T20:00:30.137Z,54.40
2017-11-20T20:02:57.349Z,54.30
2017-11-20T20:05:24.541Z,54.10
2017-11-20T20:07:51.756Z,54.00
2017-11-20T20:10:18.909Z,53.60
2017-11-20T20:12:46.151Z,53.50
2017-11-20T20:15:19.385Z,53.70
2017-11-20T20:17:46.636Z,53.70
2017-11-20T20:20:13.866Z,53.50
2017-11-20T20:22:41.226Z,53.70
2017-11-20T20:25:08.400Z,53.60
2017-11-20T20:27:36.746Z,53.50
2017-11-20T20:30:03.896Z,53.50
2017-11-20T20:32:31.081Z,53.50
2017-11-20T20:34:58.247Z,53.40
2017-11-20T20:37:27.145Z,53.40
2017-11-20T20:39:56.768Z,53.40
2017-11-20T20:42:24.902Z,53.40
2017-11-20T20:44:52.051Z,53.40
2017-11-20T20:47:19.285Z,53.40
2017-11-20T20:49:46.537Z,53.40
2017-11-20T20:52:13.797Z,53.40
2017-11-20T20:54:40.952Z,54.50
2017-11-20T20:57:08.104Z,53.80
2017-11-20T20:59:35.352Z,53.70
2017-11-20T21:02:02.503Z,53.80
2017-11-20T21:04:29.693Z,53.90
2017-11-20T21:06:59.367Z,54.20
2017-11-20T21:09:26.577Z,54.90
2017-11-20T21:12:00.426Z,53.90
2017-11-20T21:14:27.668Z,53.90
2017-11-20T21:16:54.922Z,53.90
2017-11-20T21:19:22.077Z,53.80
2017-11-20T21:21:54.584Z,54.00
2017-11-20T21:24:21.799Z,55.20
2017-11-20T21:26:49.719Z,54.90
2017-11-20T21:29:16.868Z,54.10
2017-11-20T21:31:44.027Z,54.10
2017-11-20T21:34:11.953Z,54.30
2017-11-20T21:36:39.112Z,54.30
2017-11-20T21:39:06.344Z,54.70
2017-11-20T21:41:33.528Z,55.10
2017-11-20T21:44:00.781Z,54.60
2017-11-20T21:46:28.001Z,54.10
2017-11-20T21:48:55.189Z,54.10
2017-11-20T21:51:22.449Z,54.00
2017-11-20T21:53:49.762Z,55.00
2017-11-20T21:56:16.915Z,55.30
2017-11-20T21:58:44.101Z,54.80
2017-11-20T22:01:11.256Z,54.90
2017-11-20T22:03:38.445Z,54.00
2017-11-20T22:06:06.436Z,53.80
2017-11-20T22:08:33.690Z,53.80
2017-11-20T22:11:00.885Z,53.70
2017-11-20T22:13:28.048Z,53.60
2017-11-20T22:15:55.234Z,54.50
2017-11-20T22:18:22.497Z,54.30
2017-11-20T22:20:49.695Z,53.90
2017-11-20T22:23:17.719Z,53.70
2017-11-20T22:25:44.879Z,53.70
2017-11-20T22:28:12.125Z,54.30
2017-11-20T22:30:39.394Z,55.00
2017-11-20T22:33:06.632Z,54.70
2017-11-20T22:35:33.785Z,54.10
2017-11-20T22:40:42.742Z,53.70
2017-11-20T22:43:10.221Z,54.50
2017-11-20T22:45:37.458Z,54.30
2017-11-20T22:48:04.641Z,55.20
2017-11-20T22:50:31.845Z,55.00
2017-11-20T22:52:59.108Z,54.70
2017-11-20T22:55:26.295Z,54.40
2017-11-20T22:57:53.500Z,54.40
2017-11-20T23:00:20.660Z,54.70
2017-11-20T23:02:47.913Z,55.20
2017-11-20T23:05:15.099Z,55.50
2017-11-20T23:07:43.018Z,55.30
2017-11-20T23:10:10.281Z,55.30
2017-11-20T23:12:37.536Z,54.80
2017-11-20T23:15:04.684Z,54.70
2017-11-20T23:17:31.833Z,54.60
2017-11-20T23:19:58.989Z,55.40
2017-11-20T23:22:26.237Z,55.40
2017-11-20T23:24:53.495Z,55.20
2017-11-20T23:27:20.659Z,55.20
2017-11-20T23:29:47.901Z,54.70
2017-11-20T23:32:15.049Z,54.70
2017-11-20T23:34:42.308Z,54.40
2017-11-20T23:37:09.552Z,55.30
2017-11-20T23:39:36.701Z,55.60
2017-11-20T23:42:03.852Z,55.20
2017-11-20T23:44:31.008Z,55.10
2017-11-20T23:46:58.218Z,55.10
2017-11-20T23:49:26.140Z,55.50
2017-11-20T23:51:53.291Z,55.40
2017-11-20T23:54:26.473Z,55.30
2017-11-20T23:56:53.626Z,55.00
2017-11-20T23:59:20.789Z,55.50
